sensor_id;sensor_type;location;lat;lon;timestamp;temperature;humidity
14409;DHT22;7289;50.706;4.992;2022-08-23T00:01:42;17.70;99.70
14409;DHT22;7289;50.706;4.992;2022-08-23T00:04:15;17.70;99.70
14409;DHT22;7289;50.706;4.992;2022-08-23T00:06:46;17.70;99.80
14409;DHT22;7289;50.706;4.992;2022-08-23T00:09:18;17.60;99.70
14409;DHT22;7289;50.706;4.992;2022-08-23T00:11:48;17.60;99.90
14409;DHT22;7289;50.706;4.992;2022-08-23T00:14:20;17.50;99.90
14409;DHT22;7289;50.706;4.992;2022-08-23T00:16:49;17.40;99.90
14409;DHT22;7289;50.706;4.992;2022-08-23T00:19:19;17.40;99.90
14409;DHT22;7289;50.706;4.992;2022-08-23T00:21:49;17.40;99.90
14409;DHT22;7289;50.706;4.992;2022-08-23T00:24:20;17.40;99.90
14409;DHT22;7289;50.706;4.992;2022-08-23T00:26:59;17.40;99.90
14409;DHT22;7289;50.706;4.992;2022-08-23T00:29:34;17.50;99.90
14409;DHT22;7289;50.706;4.992;2022-08-23T00:32:03;17.50;99.90
14409;DHT22;7289;50.706;4.992;2022-08-23T00:34:32;17.50;99.90
14409;DHT22;7289;50.706;4.992;2022-08-23T00:37:01;17.50;99.90
14409;DHT22;7289;50.706;4.992;2022-08-23T00:39:30;17.50;99.90
14409;DHT22;7289;50.706;4.992;2022-08-23T00:42:04;17.50;99.90
14409;DHT22;7289;50.706;4.992;2022-08-23T00:44:55;17.40;99.90
14409;DHT22;7289;50.706;4.992;2022-08-23T00:47:41;17.30;99.90
14409;DHT22;7289;50.706;4.992;2022-08-23T00:50:20;17.30;99.90
14409;DHT22;7289;50.706;4.992;2022-08-23T00:52:56;17.20;99.90
14409;DHT22;7289;50.706;4.992;2022-08-23T00:55:29;17.20;99.90
14409;DHT22;7289;50.706;4.992;2022-08-23T00:57:58;17.20;99.90
14409;DHT22;7289;50.706;4.992;2022-08-23T01:00:28;17.10;99.90
14409;DHT22;7289;50.706;4.992;2022-08-23T01:02:56;17.10;99.90
14409;DHT22;7289;50.706;4.992;2022-08-23T01:05:27;17.00;99.90
14409;DHT22;7289;50.706;4.992;2022-08-23T01:07:58;17.00;99.90
14409;DHT22;7289;50.706;4.992;2022-08-23T01:10:31;17.00;99.90
14409;DHT22;7289;50.706;4.992;2022-08-23T01:13:08;17.00;99.90
14409;DHT22;7289;50.706;4.992;2022-08-23T01:15:41;17.10;99.90
14409;DHT22;7289;50.706;4.992;2022-08-23T01:18:14;17.10;99.90
14409;DHT22;7289;50.706;4.992;2022-08-23T01:20:48;17.20;99.90
14409;DHT22;7289;50.706;4.992;2022-08-23T01:23:27;17.20;99.90
14409;DHT22;7289;50.706;4.992;2022-08-23T01:25:56;17.20;99.90
14409;DHT22;7289;50.706;4.992;2022-08-23T01:28:25;17.20;99.90
14409;DHT22;7289;50.706;4.992;2022-08-23T01:30:54;17.30;99.90
14409;DHT22;7289;50.706;4.992;2022-08-23T01:33:23;17.30;99.90
14409;DHT22;7289;50.706;4.992;2022-08-23T01:35:54;17.30;99.90
14409;DHT22;7289;50.706;4.992;2022-08-23T01:38:24;17.30;99.90
14409;DHT22;7289;50.706;4.992;2022-08-23T01:40:59;17.30;99.90
14409;DHT22;7289;50.706;4.992;2022-08-23T01:43:28;17.20;99.90
14409;DHT22;7289;50.706;4.992;2022-08-23T01:45:56;17.30;99.90
14409;DHT22;7289;50.706;4.992;2022-08-23T01:48:25;17.20;99.90
14409;DHT22;7289;50.706;4.992;2022-08-23T01:50:55;17.20;99.90
14409;DHT22;7289;50.706;4.992;2022-08-23T01:53:24;17.20;99.90
14409;DHT22;7289;50.706;4.992;2022-08-23T01:55:53;17.20;99.90
14409;DHT22;7289;50.706;4.992;2022-08-23T01:58:21;17.20;99.90
14409;DHT22;7289;50.706;4.992;2022-08-23T02:00:50;17.20;99.90
14409;DHT22;7289;50.706;4.992;2022-08-23T02:03:18;17.10;99.90
14409;DHT22;7289;50.706;4.992;2022-08-23T02:05:48;17.10;99.90
14409;DHT22;7289;50.706;4.992;2022-08-23T02:08:21;17.00;99.90
14409;DHT22;7289;50.706;4.992;2022-08-23T02:11:09;17.00;99.90
14409;DHT22;7289;50.706;4.992;2022-08-23T02:13:39;16.90;99.90
14409;DHT22;7289;50.706;4.992;2022-08-23T02:16:11;16.90;99.90
14409;DHT22;7289;50.706;4.992;2022-08-23T02:18:41;16.90;99.90
14409;DHT22;7289;50.706;4.992;2022-08-23T02:21:09;16.90;99.90
14409;DHT22;7289;50.706;4.992;2022-08-23T02:23:38;16.90;99.90
14409;DHT22;7289;50.706;4.992;2022-08-23T02:26:07;16.90;99.90
14409;DHT22;7289;50.706;4.992;2022-08-23T02:28:37;16.80;99.90
14409;DHT22;7289;50.706;4.992;2022-08-23T02:31:05;16.80;99.90
14409;DHT22;7289;50.706;4.992;2022-08-23T02:33:37;16.70;99.90
14409;DHT22;7289;50.706;4.992;2022-08-23T02:36:07;16.70;99.90
14409;DHT22;7289;50.706;4.992;2022-08-23T02:38:35;16.70;99.90
14409;DHT22;7289;50.706;4.992;2022-08-23T02:41:05;16.60;99.90
14409;DHT22;7289;50.706;4.992;2022-08-23T02:43:34;16.60;99.90
14409;DHT22;7289;50.706;4.992;2022-08-23T02:46:08;16.60;99.90
14409;DHT22;7289;50.706;4.992;2022-08-23T02:48:36;16.60;99.90
14409;DHT22;7289;50.706;4.992;2022-08-23T02:51:07;16.60;99.90
14409;DHT22;7289;50.706;4.992;2022-08-23T02:53:37;16.50;99.90
14409;DHT22;7289;50.706;4.992;2022-08-23T02:56:10;16.50;99.90
14409;DHT22;7289;50.706;4.992;2022-08-23T02:58:49;16.50;99.90
14409;DHT22;7289;50.706;4.992;2022-08-23T03:01:24;16.60;99.90
14409;DHT22;7289;50.706;4.992;2022-08-23T03:03:55;16.60;99.90
14409;DHT22;7289;50.706;4.992;2022-08-23T03:06:26;16.60;99.90
14409;DHT22;7289;50.706;4.992;2022-08-23T03:08:55;16.70;99.90
14409;DHT22;7289;50.706;4.992;2022-08-23T03:11:24;16.70;99.90
14409;DHT22;7289;50.706;4.992;2022-08-23T03:13:54;16.70;99.90
14409;DHT22;7289;50.706;4.992;2022-08-23T03:16:23;16.70;99.90
14409;DHT22;7289;50.706;4.992;2022-08-23T03:18:52;16.70;99.90
14409;DHT22;7289;50.706;4.992;2022-08-23T03:21:21;16.80;99.90
14409;DHT22;7289;50.706;4.992;2022-08-23T03:23:51;16.70;99.90
14409;DHT22;7289;50.706;4.992;2022-08-23T03:26:20;16.70;99.90
14409;DHT22;7289;50.706;4.992;2022-08-23T03:28:49;16.60;99.90
14409;DHT22;7289;50.706;4.992;2022-08-23T03:31:20;16.50;99.90
14409;DHT22;7289;50.706;4.992;2022-08-23T03:34:10;16.50;99.90
14409;DHT22;7289;50.706;4.992;2022-08-23T03:36:39;16.60;99.90
14409;DHT22;7289;50.706;4.992;2022-08-23T03:39:08;16.50;99.90
14409;DHT22;7289;50.706;4.992;2022-08-23T03:41:36;16.50;99.90
14409;DHT22;7289;50.706;4.992;2022-08-23T03:44:06;16.40;99.90
14409;DHT22;7289;50.706;4.992;2022-08-23T03:46:40;16.30;99.90
14409;DHT22;7289;50.706;4.992;2022-08-23T03:49:09;16.30;99.90
14409;DHT22;7289;50.706;4.992;2022-08-23T03:51:49;16.30;99.90
14409;DHT22;7289;50.706;4.992;2022-08-23T03:54:18;16.30;99.90
14409;DHT22;7289;50.706;4.992;2022-08-23T03:56:53;16.30;99.90
14409;DHT22;7289;50.706;4.992;2022-08-23T03:59:23;16.20;99.90
14409;DHT22;7289;50.706;4.992;2022-08-23T04:01:52;16.30;99.90
14409;DHT22;7289;50.706;4.992;2022-08-23T04:04:21;16.30;99.90
14409;DHT22;7289;50.706;4.992;2022-08-23T04:07:09;16.40;99.90
14409;DHT22;7289;50.706;4.992;2022-08-23T04:09:38;16.60;99.90
14409;DHT22;7289;50.706;4.992;2022-08-23T04:12:06;16.60;99.90
14409;DHT22;7289;50.706;4.992;2022-08-23T04:14:44;16.60;99.90
14409;DHT22;7289;50.706;4.992;2022-08-23T04:17:15;16.80;99.90
14409;DHT22;7289;50.706;4.992;2022-08-23T04:19:45;16.80;99.90
14409;DHT22;7289;50.706;4.992;2022-08-23T04:22:15;16.90;99.90
14409;DHT22;7289;50.706;4.992;2022-08-23T04:24:44;17.00;99.90
14409;DHT22;7289;50.706;4.992;2022-08-23T04:27:13;17.00;99.90
14409;DHT22;7289;50.706;4.992;2022-08-23T04:29:42;17.10;99.90
14409;DHT22;7289;50.706;4.992;2022-08-23T04:32:11;17.10;99.90
14409;DHT22;7289;50.706;4.992;2022-08-23T04:34:55;17.20;99.90
14409;DHT22;7289;50.706;4.992;2022-08-23T04:37:23;17.20;99.90
14409;DHT22;7289;50.706;4.992;2022-08-23T04:39:51;17.30;99.90
14409;DHT22;7289;50.706;4.992;2022-08-23T04:42:41;17.30;99.90
14409;DHT22;7289;50.706;4.992;2022-08-23T04:45:10;17.40;99.90
14409;DHT22;7289;50.706;4.992;2022-08-23T04:47:43;17.40;99.90
14409;DHT22;7289;50.706;4.992;2022-08-23T04:50:13;17.50;99.90
14409;DHT22;7289;50.706;4.992;2022-08-23T04:53:10;17.60;99.90
14409;DHT22;7289;50.706;4.992;2022-08-23T04:55:55;17.70;99.90
14409;DHT22;7289;50.706;4.992;2022-08-23T04:58:24;17.70;99.90
14409;DHT22;7289;50.706;4.992;2022-08-23T05:00:54;17.80;99.90
14409;DHT22;7289;50.706;4.992;2022-08-23T05:03:26;17.80;99.90
14409;DHT22;7289;50.706;4.992;2022-08-23T05:05:58;17.90;99.90
14409;DHT22;7289;50.706;4.992;2022-08-23T05:08:34;18.00;99.90
14409;DHT22;7289;50.706;4.992;2022-08-23T05:11:05;18.10;99.90
14409;DHT22;7289;50.706;4.992;2022-08-23T05:13:36;18.10;99.90
14409;DHT22;7289;50.706;4.992;2022-08-23T05:16:07;18.20;99.90
14409;DHT22;7289;50.706;4.992;2022-08-23T05:18:44;18.30;99.90
14409;DHT22;7289;50.706;4.992;2022-08-23T05:21:16;18.40;99.90
14409;DHT22;7289;50.706;4.992;2022-08-23T05:23:47;18.50;99.90
14409;DHT22;7289;50.706;4.992;2022-08-23T05:26:23;18.60;99.90
14409;DHT22;7289;50.706;4.992;2022-08-23T05:28:51;18.60;99.90
14409;DHT22;7289;50.706;4.992;2022-08-23T05:31:26;18.70;99.90
14409;DHT22;7289;50.706;4.992;2022-08-23T05:33:58;18.80;99.90
14409;DHT22;7289;50.706;4.992;2022-08-23T05:36:48;18.90;99.90
14409;DHT22;7289;50.706;4.992;2022-08-23T05:39:37;19.00;99.90
14409;DHT22;7289;50.706;4.992;2022-08-23T05:42:09;19.10;99.90
14409;DHT22;7289;50.706;4.992;2022-08-23T05:44:38;19.20;99.90
14409;DHT22;7289;50.706;4.992;2022-08-23T05:47:11;19.30;99.90
14409;DHT22;7289;50.706;4.992;2022-08-23T05:49:52;19.40;99.90
14409;DHT22;7289;50.706;4.992;2022-08-23T05:52:23;19.40;99.90
14409;DHT22;7289;50.706;4.992;2022-08-23T05:54:52;19.50;99.90
14409;DHT22;7289;50.706;4.992;2022-08-23T05:57:43;19.50;99.90
14409;DHT22;7289;50.706;4.992;2022-08-23T06:00:11;19.50;99.90
14409;DHT22;7289;50.706;4.992;2022-08-23T06:02:50;19.60;99.90
14409;DHT22;7289;50.706;4.992;2022-08-23T06:05:20;19.60;99.90
14409;DHT22;7289;50.706;4.992;2022-08-23T06:07:50;19.60;99.90
14409;DHT22;7289;50.706;4.992;2022-08-23T06:10:22;19.70;99.90
14409;DHT22;7289;50.706;4.992;2022-08-23T06:13:01;19.80;99.90
14409;DHT22;7289;50.706;4.992;2022-08-23T06:15:30;19.90;99.90
14409;DHT22;7289;50.706;4.992;2022-08-23T06:17:58;19.90;99.90
14409;DHT22;7289;50.706;4.992;2022-08-23T06:20:27;20.00;99.90
14409;DHT22;7289;50.706;4.992;2022-08-23T06:22:59;20.10;99.80
14409;DHT22;7289;50.706;4.992;2022-08-23T06:25:28;20.20;99.70
14409;DHT22;7289;50.706;4.992;2022-08-23T06:28:07;20.30;99.80
14409;DHT22;7289;50.706;4.992;2022-08-23T06:30:37;20.50;99.40
14409;DHT22;7289;50.706;4.992;2022-08-23T06:33:31;20.60;99.30
14409;DHT22;7289;50.706;4.992;2022-08-23T06:36:18;20.80;98.80
14409;DHT22;7289;50.706;4.992;2022-08-23T06:39:10;21.00;98.60
14409;DHT22;7289;50.706;4.992;2022-08-23T06:42:15;21.00;98.70
14409;DHT22;7289;50.706;4.992;2022-08-23T06:45:05;21.10;99.20
14409;DHT22;7289;50.706;4.992;2022-08-23T06:47:40;21.20;98.90
14409;DHT22;7289;50.706;4.992;2022-08-23T06:50:09;21.40;98.60
14409;DHT22;7289;50.706;4.992;2022-08-23T06:52:56;21.60;98.40
14409;DHT22;7289;50.706;4.992;2022-08-23T06:55:35;21.80;98.20
14409;DHT22;7289;50.706;4.992;2022-08-23T06:58:20;21.90;98.10
14409;DHT22;7289;50.706;4.992;2022-08-23T07:01:11;22.10;97.80
14409;DHT22;7289;50.706;4.992;2022-08-23T07:04:07;22.20;97.40
14409;DHT22;7289;50.706;4.992;2022-08-23T07:06:54;22.40;97.50
14409;DHT22;7289;50.706;4.992;2022-08-23T07:09:24;22.60;97.80
14409;DHT22;7289;50.706;4.992;2022-08-23T07:11:54;22.70;97.60
14409;DHT22;7289;50.706;4.992;2022-08-23T07:14:23;22.90;97.30
14409;DHT22;7289;50.706;4.992;2022-08-23T07:16:55;23.10;96.80
14409;DHT22;7289;50.706;4.992;2022-08-23T07:19:27;23.20;96.50
14409;DHT22;7289;50.706;4.992;2022-08-23T07:21:56;23.30;96.60
14409;DHT22;7289;50.706;4.992;2022-08-23T07:24:25;23.50;95.90
14409;DHT22;7289;50.706;4.992;2022-08-23T07:27:04;23.60;95.10
14409;DHT22;7289;50.706;4.992;2022-08-23T07:29:42;23.70;95.00
14409;DHT22;7289;50.706;4.992;2022-08-23T07:32:10;23.90;95.10
14409;DHT22;7289;50.706;4.992;2022-08-23T07:34:38;24.10;94.60
14409;DHT22;7289;50.706;4.992;2022-08-23T07:37:06;24.20;93.70
14409;DHT22;7289;50.706;4.992;2022-08-23T07:39:42;24.20;93.80
14409;DHT22;7289;50.706;4.992;2022-08-23T07:42:12;24.40;93.40
14409;DHT22;7289;50.706;4.992;2022-08-23T07:44:52;24.40;93.20
14409;DHT22;7289;50.706;4.992;2022-08-23T07:47:23;24.50;92.20
14409;DHT22;7289;50.706;4.992;2022-08-23T07:49:55;24.70;92.00
14409;DHT22;7289;50.706;4.992;2022-08-23T07:52:24;24.90;92.00
14409;DHT22;7289;50.706;4.992;2022-08-23T07:54:53;24.90;91.40
14409;DHT22;7289;50.706;4.992;2022-08-23T07:57:45;24.90;91.40
14409;DHT22;7289;50.706;4.992;2022-08-23T08:00:34;25.00;91.20
14409;DHT22;7289;50.706;4.992;2022-08-23T08:03:23;25.10;90.90
14409;DHT22;7289;50.706;4.992;2022-08-23T08:06:07;25.10;90.80
14409;DHT22;7289;50.706;4.992;2022-08-23T08:08:35;25.20;91.10
14409;DHT22;7289;50.706;4.992;2022-08-23T08:11:04;25.20;90.90
14409;DHT22;7289;50.706;4.992;2022-08-23T08:13:35;25.30;90.90
14409;DHT22;7289;50.706;4.992;2022-08-23T08:16:06;25.40;90.40
14409;DHT22;7289;50.706;4.992;2022-08-23T08:18:39;25.50;90.20
14409;DHT22;7289;50.706;4.992;2022-08-23T08:21:27;25.60;89.50
14409;DHT22;7289;50.706;4.992;2022-08-23T08:24:09;25.70;88.70
14409;DHT22;7289;50.706;4.992;2022-08-23T08:26:49;25.70;88.20
14409;DHT22;7289;50.706;4.992;2022-08-23T08:29:20;25.80;88.80
14409;DHT22;7289;50.706;4.992;2022-08-23T08:31:50;25.80;88.30
14409;DHT22;7289;50.706;4.992;2022-08-23T08:34:21;25.80;87.90
14409;DHT22;7289;50.706;4.992;2022-08-23T08:36:51;25.80;89.50
14409;DHT22;7289;50.706;4.992;2022-08-23T08:39:25;25.90;88.40
14409;DHT22;7289;50.706;4.992;2022-08-23T08:42:08;26.00;88.60
14409;DHT22;7289;50.706;4.992;2022-08-23T08:44:50;26.00;87.40
14409;DHT22;7289;50.706;4.992;2022-08-23T08:47:29;26.10;87.20
14409;DHT22;7289;50.706;4.992;2022-08-23T08:50:02;26.10;87.80
14409;DHT22;7289;50.706;4.992;2022-08-23T08:52:38;26.20;87.20
14409;DHT22;7289;50.706;4.992;2022-08-23T08:55:19;26.20;86.30
14409;DHT22;7289;50.706;4.992;2022-08-23T08:57:51;26.20;84.90
14409;DHT22;7289;50.706;4.992;2022-08-23T09:00:25;26.30;84.90
14409;DHT22;7289;50.706;4.992;2022-08-23T09:02:55;26.20;82.60
14409;DHT22;7289;50.706;4.992;2022-08-23T09:05:30;26.30;84.00
14409;DHT22;7289;50.706;4.992;2022-08-23T09:08:10;26.30;83.40
14409;DHT22;7289;50.706;4.992;2022-08-23T09:10:50;26.30;82.90
14409;DHT22;7289;50.706;4.992;2022-08-23T09:16:26;26.40;82.90
14409;DHT22;7289;50.706;4.992;2022-08-23T09:18:58;26.40;82.10
14409;DHT22;7289;50.706;4.992;2022-08-23T09:21:37;26.40;82.00
14409;DHT22;7289;50.706;4.992;2022-08-23T09:24:08;26.50;82.90
14409;DHT22;7289;50.706;4.992;2022-08-23T09:27:03;26.40;81.20
14409;DHT22;7289;50.706;4.992;2022-08-23T09:29:34;26.60;81.90
14409;DHT22;7289;50.706;4.992;2022-08-23T09:32:06;26.60;83.00
14409;DHT22;7289;50.706;4.992;2022-08-23T09:34:43;26.70;83.20
14409;DHT22;7289;50.706;4.992;2022-08-23T09:37:17;26.80;83.10
14409;DHT22;7289;50.706;4.992;2022-08-23T09:39:49;26.80;80.80
14409;DHT22;7289;50.706;4.992;2022-08-23T09:42:28;27.00;80.50
14409;DHT22;7289;50.706;4.992;2022-08-23T09:44:57;27.00;80.40
14409;DHT22;7289;50.706;4.992;2022-08-23T09:47:32;27.10;80.80
14409;DHT22;7289;50.706;4.992;2022-08-23T09:50:14;27.20;81.60
14409;DHT22;7289;50.706;4.992;2022-08-23T09:52:47;27.30;81.60
14409;DHT22;7289;50.706;4.992;2022-08-23T09:55:28;27.40;80.60
14409;DHT22;7289;50.706;4.992;2022-08-23T09:57:59;27.60;80.20
14409;DHT22;7289;50.706;4.992;2022-08-23T10:00:30;27.80;79.70
14409;DHT22;7289;50.706;4.992;2022-08-23T10:03:21;28.00;79.80
14409;DHT22;7289;50.706;4.992;2022-08-23T10:05:57;28.10;78.10
14409;DHT22;7289;50.706;4.992;2022-08-23T10:08:32;28.10;78.40
14409;DHT22;7289;50.706;4.992;2022-08-23T10:11:12;28.30;78.20
14409;DHT22;7289;50.706;4.992;2022-08-23T10:13:43;28.50;77.70
14409;DHT22;7289;50.706;4.992;2022-08-23T10:16:20;28.40;75.20
14409;DHT22;7289;50.706;4.992;2022-08-23T10:19:09;28.30;75.40
14409;DHT22;7289;50.706;4.992;2022-08-23T10:21:47;28.20;76.20
14409;DHT22;7289;50.706;4.992;2022-08-23T10:24:28;28.10;77.50
14409;DHT22;7289;50.706;4.992;2022-08-23T10:27:11;28.10;75.70
14409;DHT22;7289;50.706;4.992;2022-08-23T10:30:05;28.20;76.20
14409;DHT22;7289;50.706;4.992;2022-08-23T10:32:52;28.40;76.70
14409;DHT22;7289;50.706;4.992;2022-08-23T10:35:30;28.50;76.30
14409;DHT22;7289;50.706;4.992;2022-08-23T10:38:13;28.70;76.00
14409;DHT22;7289;50.706;4.992;2022-08-23T10:40:53;28.80;76.70
14409;DHT22;7289;50.706;4.992;2022-08-23T10:43:33;28.90;75.30
14409;DHT22;7289;50.706;4.992;2022-08-23T10:46:06;29.10;74.60
14409;DHT22;7289;50.706;4.992;2022-08-23T10:48:48;29.20;74.50
14409;DHT22;7289;50.706;4.992;2022-08-23T10:51:25;29.30;74.90
14409;DHT22;7289;50.706;4.992;2022-08-23T10:54:02;29.60;75.20
14409;DHT22;7289;50.706;4.992;2022-08-23T10:56:34;29.80;74.60
14409;DHT22;7289;50.706;4.992;2022-08-23T10:59:10;29.80;73.80
14409;DHT22;7289;50.706;4.992;2022-08-23T11:01:46;29.80;74.60
14409;DHT22;7289;50.706;4.992;2022-08-23T11:04:23;29.60;75.00
14409;DHT22;7289;50.706;4.992;2022-08-23T11:07:17;29.40;75.70
14409;DHT22;7289;50.706;4.992;2022-08-23T11:09:51;29.30;75.60
14409;DHT22;7289;50.706;4.992;2022-08-23T11:12:26;29.20;75.20
14409;DHT22;7289;50.706;4.992;2022-08-23T11:15:24;29.20;75.00
14409;DHT22;7289;50.706;4.992;2022-08-23T11:18:01;29.30;73.80
14409;DHT22;7289;50.706;4.992;2022-08-23T11:21:00;29.40;74.10
14409;DHT22;7289;50.706;4.992;2022-08-23T11:23:51;29.50;75.10
14409;DHT22;7289;50.706;4.992;2022-08-23T11:29:40;29.40;74.80
14409;DHT22;7289;50.706;4.992;2022-08-23T11:32:41;29.40;74.60
14409;DHT22;7289;50.706;4.992;2022-08-23T11:35:32;29.60;75.60
14409;DHT22;7289;50.706;4.992;2022-08-23T11:38:12;30.00;75.40
14409;DHT22;7289;50.706;4.992;2022-08-23T11:41:11;30.00;73.10
14409;DHT22;7289;50.706;4.992;2022-08-23T11:43:44;30.50;73.00
14409;DHT22;7289;50.706;4.992;2022-08-23T11:46:30;30.90;71.60
14409;DHT22;7289;50.706;4.992;2022-08-23T11:49:51;31.20;69.50
14409;DHT22;7289;50.706;4.992;2022-08-23T11:52:36;31.30;70.80
14409;DHT22;7289;50.706;4.992;2022-08-23T11:55:40;31.40;70.20
14409;DHT22;7289;50.706;4.992;2022-08-23T11:58:21;31.30;70.70
14409;DHT22;7289;50.706;4.992;2022-08-23T12:00:54;31.60;70.70
14409;DHT22;7289;50.706;4.992;2022-08-23T12:03:27;31.30;69.00
14409;DHT22;7289;50.706;4.992;2022-08-23T12:06:11;31.30;70.60
14409;DHT22;7289;50.706;4.992;2022-08-23T12:08:52;31.30;70.60
14409;DHT22;7289;50.706;4.992;2022-08-23T12:11:24;31.30;69.80
14409;DHT22;7289;50.706;4.992;2022-08-23T12:13:57;31.20;71.20
14409;DHT22;7289;50.706;4.992;2022-08-23T12:16:33;30.90;70.30
14409;DHT22;7289;50.706;4.992;2022-08-23T12:19:15;30.90;72.00
14409;DHT22;7289;50.706;4.992;2022-08-23T12:21:47;31.10;71.30
14409;DHT22;7289;50.706;4.992;2022-08-23T12:24:25;31.40;71.90
14409;DHT22;7289;50.706;4.992;2022-08-23T12:27:12;31.50;72.00
14409;DHT22;7289;50.706;4.992;2022-08-23T12:29:57;31.40;71.40
14409;DHT22;7289;50.706;4.992;2022-08-23T12:32:34;31.40;72.60
14409;DHT22;7289;50.706;4.992;2022-08-23T12:35:23;31.50;69.80
14409;DHT22;7289;50.706;4.992;2022-08-23T12:37:59;31.60;70.50
14409;DHT22;7289;50.706;4.992;2022-08-23T12:40:33;31.90;71.50
14409;DHT22;7289;50.706;4.992;2022-08-23T12:43:08;31.90;68.10
14409;DHT22;7289;50.706;4.992;2022-08-23T12:45:52;31.90;68.80
14409;DHT22;7289;50.706;4.992;2022-08-23T12:48:23;31.90;70.00
14409;DHT22;7289;50.706;4.992;2022-08-23T12:50:54;32.00;68.60
14409;DHT22;7289;50.706;4.992;2022-08-23T12:53:28;32.30;70.30
14409;DHT22;7289;50.706;4.992;2022-08-23T12:56:00;32.50;69.60
14409;DHT22;7289;50.706;4.992;2022-08-23T12:58:31;32.70;67.70
14409;DHT22;7289;50.706;4.992;2022-08-23T13:01:04;32.70;67.00
14409;DHT22;7289;50.706;4.992;2022-08-23T13:03:35;32.80;67.20
14409;DHT22;7289;50.706;4.992;2022-08-23T13:06:07;33.00;66.60
14409;DHT22;7289;50.706;4.992;2022-08-23T13:08:39;32.90;64.90
14409;DHT22;7289;50.706;4.992;2022-08-23T13:11:10;32.70;65.60
14409;DHT22;7289;50.706;4.992;2022-08-23T13:13:41;32.00;66.10
14409;DHT22;7289;50.706;4.992;2022-08-23T13:16:39;32.00;69.60
14409;DHT22;7289;50.706;4.992;2022-08-23T13:19:16;31.30;68.70
14409;DHT22;7289;50.706;4.992;2022-08-23T13:21:45;31.20;69.60
14409;DHT22;7289;50.706;4.992;2022-08-23T13:24:32;31.20;71.10
14409;DHT22;7289;50.706;4.992;2022-08-23T13:27:26;31.00;70.40
14409;DHT22;7289;50.706;4.992;2022-08-23T13:30:20;31.00;69.80
14409;DHT22;7289;50.706;4.992;2022-08-23T13:32:51;30.80;69.60
14409;DHT22;7289;50.706;4.992;2022-08-23T13:35:31;31.00;70.30
14409;DHT22;7289;50.706;4.992;2022-08-23T13:38:09;31.30;71.20
14409;DHT22;7289;50.706;4.992;2022-08-23T13:40:53;31.50;69.70
14409;DHT22;7289;50.706;4.992;2022-08-23T13:43:26;31.70;67.80
14409;DHT22;7289;50.706;4.992;2022-08-23T13:45:58;31.90;67.60
14409;DHT22;7289;50.706;4.992;2022-08-23T13:48:31;31.80;67.70
14409;DHT22;7289;50.706;4.992;2022-08-23T13:51:17;32.10;68.00
14409;DHT22;7289;50.706;4.992;2022-08-23T13:53:46;32.40;67.40
14409;DHT22;7289;50.706;4.992;2022-08-23T13:56:15;32.60;65.70
14409;DHT22;7289;50.706;4.992;2022-08-23T13:58:52;32.80;65.60
14409;DHT22;7289;50.706;4.992;2022-08-23T14:01:24;32.70;66.30
14409;DHT22;7289;50.706;4.992;2022-08-23T14:03:54;32.60;65.60
14409;DHT22;7289;50.706;4.992;2022-08-23T14:06:22;32.40;65.20
14409;DHT22;7289;50.706;4.992;2022-08-23T14:08:51;32.50;66.90
14409;DHT22;7289;50.706;4.992;2022-08-23T14:11:19;32.70;65.50
14409;DHT22;7289;50.706;4.992;2022-08-23T14:13:48;32.80;64.70
14409;DHT22;7289;50.706;4.992;2022-08-23T14:16:22;32.80;64.50
14409;DHT22;7289;50.706;4.992;2022-08-23T14:19:01;32.90;63.80
14409;DHT22;7289;50.706;4.992;2022-08-23T14:21:50;33.00;64.30
14409;DHT22;7289;50.706;4.992;2022-08-23T14:24:19;33.20;64.70
14409;DHT22;7289;50.706;4.992;2022-08-23T14:26:48;33.20;65.00
14409;DHT22;7289;50.706;4.992;2022-08-23T14:29:19;33.10;64.30
14409;DHT22;7289;50.706;4.992;2022-08-23T14:31:49;33.00;64.20
14409;DHT22;7289;50.706;4.992;2022-08-23T14:34:19;32.80;65.10
14409;DHT22;7289;50.706;4.992;2022-08-23T14:36:48;32.80;64.50
14409;DHT22;7289;50.706;4.992;2022-08-23T14:39:37;32.80;65.60
14409;DHT22;7289;50.706;4.992;2022-08-23T14:42:06;33.00;64.80
14409;DHT22;7289;50.706;4.992;2022-08-23T14:44:34;33.10;65.30
14409;DHT22;7289;50.706;4.992;2022-08-23T14:47:03;33.10;65.50
14409;DHT22;7289;50.706;4.992;2022-08-23T14:49:33;33.00;64.10
14409;DHT22;7289;50.706;4.992;2022-08-23T14:52:02;33.00;63.60
14409;DHT22;7289;50.706;4.992;2022-08-23T14:54:31;32.90;64.30
14409;DHT22;7289;50.706;4.992;2022-08-23T14:57:00;33.00;63.00
14409;DHT22;7289;50.706;4.992;2022-08-23T14:59:28;33.00;62.80
14409;DHT22;7289;50.706;4.992;2022-08-23T15:01:58;32.90;63.60
14409;DHT22;7289;50.706;4.992;2022-08-23T15:04:26;32.80;63.00
14409;DHT22;7289;50.706;4.992;2022-08-23T15:07:02;32.60;64.00
14409;DHT22;7289;50.706;4.992;2022-08-23T15:09:44;32.60;64.20
14409;DHT22;7289;50.706;4.992;2022-08-23T15:12:13;32.40;64.60
14409;DHT22;7289;50.706;4.992;2022-08-23T15:15:02;32.10;64.20
14409;DHT22;7289;50.706;4.992;2022-08-23T15:17:30;32.20;66.50
14409;DHT22;7289;50.706;4.992;2022-08-23T15:20:03;32.10;65.90
14409;DHT22;7289;50.706;4.992;2022-08-23T15:22:34;32.30;64.70
14409;DHT22;7289;50.706;4.992;2022-08-23T15:25:11;32.50;63.90
14409;DHT22;7289;50.706;4.992;2022-08-23T15:27:42;32.60;63.20
14409;DHT22;7289;50.706;4.992;2022-08-23T15:30:12;32.70;63.60
14409;DHT22;7289;50.706;4.992;2022-08-23T15:32:42;32.60;63.10
14409;DHT22;7289;50.706;4.992;2022-08-23T15:35:23;32.30;63.30
14409;DHT22;7289;50.706;4.992;2022-08-23T15:37:53;32.10;65.10
14409;DHT22;7289;50.706;4.992;2022-08-23T15:40:23;32.30;64.50
14409;DHT22;7289;50.706;4.992;2022-08-23T15:42:52;32.30;64.00
14409;DHT22;7289;50.706;4.992;2022-08-23T15:45:20;32.20;63.00
14409;DHT22;7289;50.706;4.992;2022-08-23T15:47:50;32.10;63.50
14409;DHT22;7289;50.706;4.992;2022-08-23T15:50:21;32.00;64.80
14409;DHT22;7289;50.706;4.992;2022-08-23T15:52:50;31.80;65.40
14409;DHT22;7289;50.706;4.992;2022-08-23T15:55:20;31.80;65.10
14409;DHT22;7289;50.706;4.992;2022-08-23T15:57:50;31.70;64.60
14409;DHT22;7289;50.706;4.992;2022-08-23T16:00:21;31.60;65.10
14409;DHT22;7289;50.706;4.992;2022-08-23T16:02:50;31.50;64.90
14409;DHT22;7289;50.706;4.992;2022-08-23T16:05:40;31.40;65.70
14409;DHT22;7289;50.706;4.992;2022-08-23T16:08:13;31.30;66.80
14409;DHT22;7289;50.706;4.992;2022-08-23T16:10:45;31.20;65.50
14409;DHT22;7289;50.706;4.992;2022-08-23T16:13:13;31.20;64.40
14409;DHT22;7289;50.706;4.992;2022-08-23T16:15:42;31.40;64.30
14409;DHT22;7289;50.706;4.992;2022-08-23T16:18:10;31.50;64.50
14409;DHT22;7289;50.706;4.992;2022-08-23T16:20:40;31.70;64.00
14409;DHT22;7289;50.706;4.992;2022-08-23T16:23:09;31.80;64.20
14409;DHT22;7289;50.706;4.992;2022-08-23T16:25:37;31.80;64.40
14409;DHT22;7289;50.706;4.992;2022-08-23T16:28:08;31.80;63.80
14409;DHT22;7289;50.706;4.992;2022-08-23T16:30:37;31.70;63.20
14409;DHT22;7289;50.706;4.992;2022-08-23T16:33:05;31.60;63.50
14409;DHT22;7289;50.706;4.992;2022-08-23T16:35:33;31.40;63.90
14409;DHT22;7289;50.706;4.992;2022-08-23T16:38:02;31.20;63.70
14409;DHT22;7289;50.706;4.992;2022-08-23T16:40:30;31.10;64.90